KCAK/CAK METAR and TAF weather

Enter ICAO airport designator
Station Type Date Time Source
KCAK METAR 2020/09/18 23:51 UTC NOAA

KCAK 182351Z 01007KT 10SM CLR 11/02 A3025 RMK AO2 SLP247 T01060022 10183 20106 51015


Station Type Date Time Source
KCAK Decoded METAR 2020/09/18 23:51 UTC NOAA

AKRON-CANTON REGIONAL AIRPORT , OH, United States (KCAK) 40-55N 081-27W 377M
Sep 18, 2020 - 07:51 PM EDT / 2020.09.18 2351 UTC
Wind: from the N (010 degrees) at 8 MPH (7 KT):0
Visibility: 10 mile(s):0
Sky conditions: clear
Temperature: 51.1 F (10.6 C)
Dew Point: 36.0 F (2.2 C)
Relative Humidity: 56%
Pressure (altimeter): 30.25 in. Hg (1024 hPa)
Pressure tendency: 0.04 inches (1.5 hPa) higher than three hours ago
ob: KCAK 182351Z 01007KT 10SM CLR 11/02 A3025 RMK AO2 SLP247 T01060022 10183 20106 51015
cycle: 0

Station Type Date Time Source
KCAK TAF 2020/09/18 18:22 UTC NOAA

TAF KCAK 181720Z 1818/1918 36012KT P6SM SCT040
FM182200 04006KT P6SM SKC

Example: see airport list